Terminal Aerodrome Forecast
Issued by NWS

Home | Current Version | Previous Version | Text Only | Print | Product List | Glossary On
Versions: 1 2 3 4 5 6 7 8 9 10 11 12 13 14 15 16
000
FTAK31 PAJN 221100
TAFAYA
TAF
PAYA 221124Z 2212/2312 08006KT P6SM BKN070 OVC100
     FM222100 11008KT 6SM -SHRA BKN040 OVC060 WS020/10025KT
     FM230100 10005KT P6SM -SHRA BKN045 OVC060 WS020/10025KT
     FM230500 VRB04KT P6SM VCSH SCT045 OVC060
     FM230900 VRB03KT P6SM BCFG SCT005 BKN060
      AMD LTD TO CLD VIS AND WIND 2301/2310=

USA.gov is the U.S. government's official web portal to all federal, state and local government web resources and services.